METAR Analyzer

一覧表示

Hello, Guest. (Login)

KJFK/JFK  -  ジョン・F・ケネディ

観測日時
2022-09-30 06:51 (UTC) (40分前)
気温
12.8
露点
7.2
湿数
5.6
相対湿度
68.7%
QNH
1027.1hPa
推定現地気圧
1026.6hPa
推定海面気圧
1027.1hPa
体感温度
3.8
(無風時)
14.8
HI
11.9
気温前日比
-1.6
体感温度前日比
-1
HI前日比
-1.7
水平視程
>10SM
鉛直視程
データなし
雲底高度
25000ft AGL
V/I
VMC (VFR)
RVR
No RVR data
卓越風
8kt from 20°
ガスト
No gust
降水
報告なし
その他の天気
報告なし
隙間のある雲 @ 25000ft AGL

KJFK 300651Z 02008KT 10SM BKN250 13/07 A3033 RMK AO2 SLP270 T01280072

KLGA/LGA  -  ラガーディア

観測日時
2022-09-30 06:51 (UTC) (40分前)
気温
13.3
露点
6.1
湿数
7.2
相対湿度
61.6%
QNH
1027.1hPa
推定現地気圧
1026.4hPa
推定海面気圧
1027.1hPa
体感温度
3.1
(無風時)
15.1
HI
12.3
気温前日比
-1.1
体感温度前日比
-1.2
HI前日比
-1.2
水平視程
>10SM
鉛直視程
データなし
雲底高度
25000ft AGL
V/I
VMC (VFR)
RVR
No RVR data
卓越風
12kt from 30°
ガスト
No gust
降水
報告なし
その他の天気
報告なし
隙間のある雲 @ 25000ft AGL

KLGA 300651Z 03012KT 10SM BKN250 13/06 A3033 RMK AO2 SLP269 T01330061

KEWR/EWR  -  ニューアーク・リバティー

観測日時
2022-09-30 06:51 (UTC) (40分前)
気温
11.1
露点
6.1
湿数
5
相対湿度
71.3%
QNH
1027.1hPa
推定現地気圧
1026.5hPa
推定海面気圧
1027.1hPa
体感温度
1.7
(無風時)
13.5
HI
10.1
気温前日比
-2.2
体感温度前日比
-1.9
HI前日比
-2.5
水平視程
>10SM
鉛直視程
データなし
雲底高度
25000ft AGL
V/I
VMC (VFR)
RVR
No RVR data
卓越風
8kt from 20°
ガスト
No gust
降水
報告なし
その他の天気
報告なし
隙間のある雲 @ 25000ft AGL

KEWR 300651Z 02008KT 10SM BKN250 11/06 A3033 RMK AO2 SLP269 T01110061 $

KIAD/IAD  -  ワシントン・ダレス

観測日時
2022-09-30 06:52 (UTC) (39分前)
気温
12.2
露点
6.7
湿数
5.5
相対湿度
69.1%
QNH
1025.4hPa
推定現地気圧
1013.9hPa
推定海面気圧
1025.5hPa
体感温度
3.1
(無風時)
14.4
HI
11.3
気温前日比
±0
体感温度前日比
-2.5
HI前日比
-0.3
水平視程
>10SM
鉛直視程
データなし
雲底高度
25000ft AGL
V/I
VMC (VFR)
RVR
No RVR data
卓越風
8kt from 20°
ガスト
No gust
降水
報告なし
その他の天気
報告なし
隙間のある雲 @ 25000ft AGL

KIAD 300652Z 02008KT 10SM BKN250 12/07 A3028 RMK AO2 SLP252 T01220067

KDTW/DTW  -  デトロイト・メトロポリタン・ウェイン・カウンティ

No data in
2022-09-30 05:31 ~ 2022-09-30 07:31 (UTC)

KDET/DET  -  コールマン・A・ヤング

観測日時
2022-09-30 06:53 (UTC) (38分前)
気温
7.8
露点
5
湿数
2.8
相対湿度
82.4%
QNH
1028.4hPa
推定現地気圧
1005.4hPa
推定海面気圧
1029.0hPa
体感温度
10.8
(無風時)
10.8
HI
6.8
気温前日比
-3.9
体感温度前日比
+4.5
HI前日比
-4
水平視程
6SM
鉛直視程
データなし
雲底高度
No dense clouds
V/I
VMC (VFR)
RVR
No RVR data
卓越風
静穏
ガスト
No gust
降水
報告なし
その他の天気
煙霧
目立った雲なし

KDET 300653Z 00000KT 6SM HZ CLR 08/05 A3037 RMK AO2 SLP286 T00780050 $

KMCO/MCO  -  オーランド

観測日時
2022-09-30 06:53 (UTC) (38分前)
気温
18.3
露点
14.4
湿数
3.9
相対湿度
78%
QNH
1007.1hPa
推定現地気圧
1003.6hPa
推定海面気圧
1007.0hPa
体感温度
9.5
(無風時)
19.4
HI
18.2
気温前日比
-3.7
体感温度前日比
-3.7
HI前日比
-4.6
水平視程
>10SM
鉛直視程
データなし
雲底高度
3800ft AGL
V/I
VMC (VFR)
RVR
No RVR data
卓越風
12kt from 290°
ガスト
22kt
降水
報告なし
その他の天気
報告なし
少しの雲 @ 2800ft AGL / 隙間のある雲 @ 3800ft AGL

KMCO 300653Z AUTO 29012G22KT 10SM FEW028 BKN038 18/14 A2974 RMK AO2 SLP067 T01830144 $

KMIA/MIA  -  マイアミ

観測日時
2022-09-30 06:53 (UTC) (38分前)
気温
21.7
露点
17.8
湿数
3.9
相対湿度
78.5%
QNH
1007.5hPa
推定現地気圧
1007.1hPa
推定海面気圧
1007.4hPa
体感温度
15.8
(無風時)
22.2
HI
22
気温前日比
-5.2
体感温度前日比
-5.2
HI前日比
-7.3
水平視程
>10SM
鉛直視程
データなし
雲底高度
No dense clouds
V/I
VMC (VFR)
RVR
No RVR data
卓越風
6kt from 320°
ガスト
No gust
降水
報告なし
その他の天気
報告なし
少しの雲 @ 1800ft AGL / 少しの雲 @ 4000ft AGL

KMIA 300653Z 32006KT 10SM FEW018 FEW040 22/18 A2975 RMK AO2 SLP075 T02170178

KFLL/FLL  -  フォートローダーデール・ハリウッド

観測日時
2022-09-30 06:53 (UTC) (38分前)
気温
21.1
露点
17.8
湿数
3.3
相対湿度
81.4%
QNH
1007.1hPa
推定現地気圧
1004.7hPa
推定海面気圧
1007.0hPa
体感温度
13.7
(無風時)
21.8
HI
21.4
気温前日比
-5.6
体感温度前日比
-6.5
HI前日比
-7.6
水平視程
>10SM
鉛直視程
データなし
雲底高度
No dense clouds
V/I
VMC (VFR)
RVR
No RVR data
卓越風
10kt from 310°
ガスト
No gust
降水
報告なし
その他の天気
報告なし
目立った雲なし

KFLL 300653Z 31010KT 10SM CLR 21/18 A2974 RMK AO2 SLP070 T02110178

KTPA/TPA  -  タンパ

観測日時
2022-09-30 06:53 (UTC) (38分前)
気温
データなし
露点
データなし
湿数
データなし
相対湿度
データなし
QNH
1009.1hPa
推定現地気圧
1008.1hPa
推定海面気圧
データなし
体感温度
データなし
HI
データなし
気温前日比
データなし
体感温度前日比
データなし
HI前日比
データなし
水平視程
データなし
鉛直視程
データなし
雲底高度
データなし
V/I
判定不可
RVR
No RVR data
卓越風
データなし
ガスト
データなし
降水
報告なし
その他の天気
報告なし
報告なし

KTPA 300653Z AUTO A2980 RMK AO2 SLP092 PWINO

KORD/ORD  -  シカゴ・オヘア

No data in
2022-09-30 05:31 ~ 2022-09-30 07:31 (UTC)

KMSP/MSP  -  ミネアポリス・セントポール

観測日時
2022-09-30 06:53 (UTC) (38分前)
気温
12.2
露点
3.9
湿数
8.3
相対湿度
56.8%
QNH
1023.4hPa
推定現地気圧
992.6hPa
推定海面気圧
1023.5hPa
体感温度
2.9
(無風時)
14.3
HI
11
気温前日比
+4.4
体感温度前日比
+4.3
HI前日比
+4.7
水平視程
>10SM
鉛直視程
データなし
雲底高度
No dense clouds
V/I
VMC (VFR)
RVR
No RVR data
卓越風
9kt from 140°
ガスト
No gust
降水
報告なし
その他の天気
報告なし
少しの雲 @ 22000ft AGL

KMSP 300653Z 14009KT 10SM FEW220 12/04 A3022 RMK AO2 LTG DSNT SW SLP233 T01220039

KIAH/IAH  -  ヒューストン/ジョージ・ブッシュ・インターコンチネンタル

No data in
2022-09-30 05:31 ~ 2022-09-30 07:31 (UTC)

KDFW/DFW  -  ダラス・フォートワース

No data in
2022-09-30 05:31 ~ 2022-09-30 07:31 (UTC)

KAUS/AUS  -  オースティン・バーグストロム

観測日時
2022-09-30 06:53 (UTC) (38分前)
気温
17.8
露点
11.1
湿数
6.7
相対湿度
64.8%
QNH
1018.3hPa
推定現地気圧
998.5hPa
推定海面気圧
1018.0hPa
体感温度
12
(無風時)
18.6
HI
17.3
気温前日比
+3.9
体感温度前日比
+3.4
HI前日比
+3.9
水平視程
>10SM
鉛直視程
データなし
雲底高度
No dense clouds
V/I
VMC (VFR)
RVR
No RVR data
卓越風
4kt from 70°
ガスト
No gust
降水
報告なし
その他の天気
報告なし
目立った雲なし

KAUS 300653Z 07004KT 10SM CLR 18/11 A3007 RMK AO2 SLP173 T01780111

KDEN/DEN  -  デンバー

No data in
2022-09-30 05:31 ~ 2022-09-30 07:31 (UTC)

KPHX/PHX  -  フェニックス・スカイハーバー

観測日時
2022-09-30 06:51 (UTC) (40分前)
気温
28.3
露点
13.3
湿数
15
相対湿度
39.7%
QNH
1011.9hPa
推定現地気圧
971.0hPa
推定海面気圧
1009.6hPa
体感温度
21.5
(無風時)
24.8
HI
27.9
気温前日比
-1.7
体感温度前日比
-1.2
HI前日比
-1.4
水平視程
>10SM
鉛直視程
データなし
雲底高度
No dense clouds
V/I
VMC (VFR)
RVR
No RVR data
卓越風
6kt from 110°
ガスト
No gust
降水
報告なし
その他の天気
報告なし
少しの雲 @ 16000ft AGL / 少しの雲 @ 25000ft AGL

KPHX 300651Z 11006KT 10SM FEW160 FEW250 28/13 A2988 RMK AO2 SLP098 T02830133 403830256

KTUS/TUS  -  ツーソン

観測日時
2022-09-30 06:53 (UTC) (38分前)
気温
22.8
露点
15.6
湿数
7.2
相対湿度
63.8%
QNH
1016.9hPa
推定現地気圧
923.4hPa
推定海面気圧
1012.5hPa
体感温度
16.3
(無風時)
22.4
HI
22.8
気温前日比
±0
体感温度前日比
+0.1
HI前日比
+0.1
水平視程
>10SM
鉛直視程
データなし
雲底高度
11000ft AGL
V/I
VMC (VFR)
RVR
No RVR data
卓越風
7kt from 150°
ガスト
No gust
降水
報告なし
その他の天気
報告なし
隙間のある雲 @ 11000ft AGL

KTUS 300653Z 15007KT 10SM BKN110 23/16 A3003 RMK AO2 SLP125 T02280156 403220211

KSFO/SFO  -  サンフランシスコ

観測日時
2022-09-30 06:56 (UTC) (35分前)
気温
16.1
露点
12.8
湿数
3.3
相対湿度
80.8%
QNH
1012.9hPa
推定現地気圧
1012.4hPa
推定海面気圧
1012.9hPa
体感温度
8.3
(無風時)
17.7
HI
15.9
気温前日比
±0
体感温度前日比
-0.5
HI前日比
-0.2
水平視程
>10SM
鉛直視程
データなし
雲底高度
No dense clouds
V/I
VMC (VFR)
RVR
No RVR data
卓越風
7kt from 290°
ガスト
No gust
降水
報告なし
その他の天気
報告なし
目立った雲なし

KSFO 300656Z 29007KT 10SM CLR 16/13 A2991 RMK AO2 SLP127 T01610128

KLAX/LAX  -  ロサンゼルス

観測日時
2022-09-30 06:53 (UTC) (38分前)
気温
20
露点
17.2
湿数
2.8
相対湿度
83.9%
QNH
1013.2hPa
推定現地気圧
1008.5hPa
推定海面気圧
1013.1hPa
体感温度
14.9
(無風時)
21
HI
20.2
気温前日比
-1.7
体感温度前日比
-1.2
HI前日比
-2.1
水平視程
>10SM
鉛直視程
データなし
雲底高度
No dense clouds
V/I
VMC (VFR)
RVR
No RVR data
卓越風
4kt from 250°
ガスト
No gust
降水
報告なし
その他の天気
報告なし
少しの雲 @ 1000ft AGL

KLAX 300653Z 25004KT 10SM FEW010 20/17 A2992 RMK AO2 SLP128 T02000172

KSJC/SJC  -  サンノゼ

観測日時
2022-09-30 06:53 (UTC) (38分前)
気温
18.9
露点
12.8
湿数
6.1
相対湿度
67.7%
QNH
1012.9hPa
推定現地気圧
1010.6hPa
推定海面気圧
1012.8hPa
体感温度
14.1
(無風時)
19.5
HI
18.6
気温前日比
+1.1
体感温度前日比
-5.1
HI前日比
+0.8
水平視程
>10SM
鉛直視程
データなし
雲底高度
No dense clouds
V/I
VMC (VFR)
RVR
No RVR data
卓越風
3kt from 290°
ガスト
No gust
降水
報告なし
その他の天気
報告なし
目立った雲なし

KSJC 300653Z 29003KT 10SM CLR 19/13 A2991 RMK AO2 SLP129 T01890128 $

510.2msec